Time;durP1;ratioP1;P1;durP2;ratioP2;P2;SDS_P1;SDS_P2;PMS_P1;PMS_P2;Temp;Humidity;BMP_temperature;BMP_pressure;BME280_temperature;BME280_humidity;BME280_pressure;Samples;Min_cycle;Max_cycle;Signal;HPM_P1;HPM_P2
2022/04/17 00:00:29;;;;;;;18.37;9.50;;;13.30;73.10;;;13.41;53.03;94792.22;5056969;28;20486;-55
2022/04/17 00:02:56;;;;;;;10.27;8.33;;;13.20;73.00;;;13.39;53.03;94783.66;5053780;28;20467;-55
2022/04/17 00:05:25;;;;;;;11.00;8.30;;;13.20;73.10;;;13.40;53.93;94785.28;5052136;28;20479;-56
2022/04/17 00:07:52;;;;;;;13.80;9.97;;;13.20;74.80;;;13.37;52.91;94775.88;5065001;28;20498;-56
2022/04/17 00:10:19;;;;;;;15.30;8.57;;;13.20;73.20;;;13.36;53.34;94768.94;5055851;28;20525;-56
2022/04/17 00:12:46;;;;;;;10.97;8.23;;;13.20;73.90;;;13.33;53.48;94768.41;5050787;28;20460;-58
2022/04/17 00:15:14;;;;;;;11.27;8.40;;;13.10;74.50;;;13.30;54.23;94771.34;5056151;28;20474;-57
2022/04/17 00:17:43;;;;;;;9.47;8.50;;;13.10;75.40;;;13.27;53.37;94769.84;5055906;28;20858;-57
2022/04/17 00:20:12;;;;;;;9.23;7.63;;;13.10;74.40;;;13.27;54.30;94769.84;5053532;28;20471;-56
2022/04/17 00:22:40;;;;;;;11.60;9.20;;;13.10;75.70;;;13.23;53.69;94764.06;5057141;28;21058;-56
2022/04/17 00:25:09;;;;;;;10.63;9.47;;;13.00;74.80;;;13.20;53.61;94766.19;5060588;28;20537;-55
2022/04/17 00:27:39;;;;;;;12.27;8.80;;;13.00;75.10;;;13.17;55.04;94764.69;5047411;28;20995;-56
2022/04/17 00:30:08;;;;;;;9.13;7.57;;;13.00;77.10;;;13.14;53.96;94759.72;5053429;28;20491;-55
2022/04/17 00:32:36;;;;;;;9.90;8.60;;;13.00;75.60;;;13.13;54.72;94755.44;5059909;28;20509;-55
2022/04/17 00:35:04;;;;;;;9.50;7.90;;;12.90;76.60;;;13.09;53.93;94757.56;5056555;28;20549;-56
2022/04/17 00:37:31;;;;;;;9.70;8.73;;;12.90;75.90;;;13.09;54.31;94743.53;5059052;28;20898;-56
2022/04/17 00:40:00;;;;;;;11.30;8.57;;;12.90;76.50;;;13.08;53.82;94736.59;5053563;28;20544;-55
2022/04/17 00:42:27;;;;;;;12.37;8.30;;;12.90;76.00;;;13.05;54.60;94734.28;5055740;28;20452;-55
2022/04/17 00:44:55;;;;;;;11.43;7.70;;;12.90;77.10;;;13.03;53.90;94741.53;5055277;28;20475;-56
2022/04/17 00:47:22;;;;;;;11.37;9.73;;;12.80;76.30;;;13.00;54.51;94747.94;5052971;28;20465;-55
2022/04/17 00:49:49;;;;;;;9.90;8.80;;;12.80;77.00;;;12.97;53.87;94747.44;5051364;28;20561;-56
2022/04/17 00:52:20;;;;;;;8.70;7.80;;;12.80;76.60;;;12.89;54.19;94738.50;5052719;28;20463;-57
2022/04/17 00:54:48;;;;;;;9.70;7.20;;;12.70;76.60;;;12.85;54.35;94738.97;5054822;28;20589;-55
2022/04/17 00:57:17;;;;;;;9.77;8.40;;;12.70;77.00;;;12.79;54.63;94743.03;5058346;28;20864;-56
2022/04/17 00:59:45;;;;;;;9.57;7.03;;;12.60;77.30;;;12.75;54.73;94731.16;5056768;28;20486;-57
2022/04/17 01:02:13;;;;;;;14.27;8.70;;;12.60;77.40;;;12.69;55.04;94729.16;5052783;28;20459;-57
2022/04/17 01:04:41;;;;;;;11.50;7.07;;;12.50;77.50;;;12.69;54.91;94729.97;5049360;28;20494;-57
2022/04/17 01:07:10;;;;;;;10.03;7.30;;;12.50;78.20;;;12.68;54.85;94730.13;5053653;28;20946;-55
2022/04/17 01:09:37;;;;;;;10.60;8.67;;;12.50;77.30;;;12.66;54.59;94721.56;5049229;28;20491;-58
2022/04/17 01:12:08;;;;;;;12.90;7.40;;;12.50;77.40;;;12.66;54.69;94734.75;5054710;28;20955;-56
2022/04/17 01:14:41;;;;;;;9.63;8.63;;;12.50;77.80;;;12.62;55.17;94754.50;5062392;28;21001;-56
2022/04/17 01:17:09;;;;;;;12.53;7.60;;;12.40;78.10;;;12.58;54.83;94740.78;5060837;28;20944;-57
2022/04/17 01:19:37;;;;;;;10.30;7.93;;;12.40;78.10;;;12.57;55.06;94735.69;5062818;28;20461;-56
2022/04/17 01:22:06;;;;;;;17.60;7.47;;;12.40;78.20;;;12.58;54.76;94739.94;5057503;28;20456;-55
2022/04/17 01:27:19;;;;;;;11.97;8.83;;;12.40;79.20;;;12.55;54.91;94718.19;5054599;28;20451;-55
2022/04/17 01:29:50;;;;;;;14.03;8.47;;;12.40;78.20;;;12.54;55.23;94720.97;5059228;28;20497;-56
2022/04/17 01:32:17;;;;;;;10.47;7.90;;;12.40;78.20;;;12.52;55.18;94729.03;5059262;28;20543;-56
2022/04/17 01:34:45;;;;;;;11.90;8.00;;;12.30;78.70;;;12.51;54.95;94726.56;5060586;28;20916;-56
2022/04/17 01:37:14;;;;;;;9.47;7.20;;;12.40;78.10;;;12.49;55.15;94718.81;5054703;28;20798;-56
2022/04/17 01:39:42;;;;;;;8.10;7.33;;;12.30;78.10;;;12.50;55.23;94724.91;5063922;28;21000;-55
2022/04/17 01:42:11;;;;;;;9.20;7.67;;;12.30;78.50;;;12.49;55.38;94729.34;5063229;28;20455;-56
2022/04/17 01:44:38;;;;;;;10.83;7.80;;;12.30;78.70;;;12.48;56.21;94725.06;5052738;28;20847;-57
2022/04/17 01:47:05;;;;;;;9.67;6.50;;;12.30;80.10;;;12.46;55.29;94723.56;5053850;28;20456;-55
2022/04/17 01:49:32;;;;;;;11.27;7.07;;;12.30;79.00;;;12.45;55.62;94722.72;5054960;28;20930;-56
2022/04/17 01:52:00;;;;;;;9.70;8.00;;;12.30;79.00;;;12.43;55.63;94719.41;5060063;28;20463;-56
2022/04/17 01:54:29;;;;;;;11.70;8.10;;;12.30;79.40;;;12.42;56.25;94717.75;5060480;28;20491;-56
2022/04/17 01:56:57;;;;;;;11.43;7.90;;;12.20;80.20;;;12.39;56.02;94715.44;5059265;28;20879;-56
2022/04/17 01:59:24;;;;;;;8.63;7.73;;;12.20;79.80;;;12.38;55.94;94722.53;5056337;28;20454;-56
2022/04/17 02:01:52;;;;;;;10.03;8.47;;;12.20;80.30;;;12.37;56.45;94712.94;5055566;28;20462;-55
2022/04/17 02:04:19;;;;;;;14.97;9.47;;;12.20;81.10;;;12.35;56.41;94722.00;5054954;28;20468;-57
2022/04/17 02:06:47;;;;;;;11.57;8.50;;;12.20;80.90;;;12.31;56.40;94710.94;5056042;28;20479;-55
2022/04/17 02:09:15;;;;;;;10.80;8.37;;;12.10;81.00;;;12.30;56.93;94725.13;5058431;28;20943;-57
2022/04/17 02:11:45;;;;;;;10.93;8.10;;;12.10;81.40;;;12.31;56.48;94715.38;5060682;28;20486;-55
2022/04/17 02:14:12;;;;;;;11.63;8.30;;;12.10;81.60;;;12.30;56.56;94717.19;5058427;28;21081;-56
2022/04/17 02:16:39;;;;;;;14.20;7.80;;;12.10;81.50;;;12.30;56.97;94708.44;5052268;28;20541;-56
2022/04/17 02:19:07;;;;;;;10.53;8.43;;;12.10;82.50;;;12.28;57.55;94695.41;5056088;28;20930;-55
2022/04/17 02:21:34;;;;;;;14.00;8.37;;;12.10;83.40;;;12.26;57.43;94694.75;5059987;28;20479;-55
2022/04/17 02:24:02;;;;;;;11.03;8.40;;;12.10;83.20;;;12.21;57.03;94702.31;5057331;28;20455;-56
2022/04/17 02:26:30;;;;;;;8.97;7.33;;;12.10;82.80;;;12.19;56.83;94697.19;5058794;28;21134;-55
2022/04/17 02:28:59;;;;;;;10.80;8.27;;;12.00;82.50;;;12.16;57.86;94689.59;5056989;28;20495;-57
2022/04/17 02:31:26;;;;;;;10.73;8.37;;;12.00;84.00;;;12.16;57.79;94694.00;5059345;28;20549;-55
2022/04/17 02:33:53;;;;;;;10.90;9.63;;;12.00;83.50;;;12.12;58.14;94695.31;5057508;28;20466;-57
2022/04/17 02:36:21;;;;;;;11.93;8.30;;;12.00;84.00;;;12.07;58.15;94690.50;5055034;28;20471;-56
2022/04/17 02:38:48;;;;;;;18.47;10.70;;;11.90;84.80;;;12.04;58.36;94688.16;5052806;28;21174;-57
2022/04/17 02:41:16;;;;;;;10.90;8.37;;;11.90;85.30;;;12.04;57.85;94697.88;5056842;28;20561;-55
2022/04/17 02:43:43;;;;;;;10.40;8.50;;;11.90;83.90;;;12.02;57.66;94693.59;5052893;28;20462;-57
2022/04/17 02:46:11;;;;;;;13.90;8.53;;;11.90;84.30;;;12.01;57.67;94686.66;5056887;28;20627;-56
2022/04/17 02:48:38;;;;;;;13.50;9.90;;;11.90;83.90;;;12.04;58.16;94692.59;5060336;28;20504;-57
2022/04/17 02:51:06;;;;;;;11.30;8.67;;;11.90;85.00;;;12.05;57.95;94684.53;5058383;28;20471;-56
2022/04/17 02:53:34;;;;;;;13.53;8.90;;;11.90;85.80;;;12.04;58.15;94679.41;5056831;28;20525;-56
2022/04/17 02:56:01;;;;;;;14.43;7.30;;;11.90;85.00;;;12.03;57.67;94683.88;5050832;28;20467;-56
2022/04/17 02:58:28;;;;;;;12.03;7.77;;;11.90;84.60;;;12.01;58.11;94685.84;5054813;28;20471;-55
2022/04/17 03:06:26;;;;;;;7.67;6.90;;;11.90;85.00;;;12.01;57.91;94684.03;5058501;28;20493;-56
2022/04/17 03:08:53;;;;;;;8.70;7.67;;;11.80;85.20;;;12.02;57.98;94690.13;5057451;28;20470;-57
2022/04/17 03:11:20;;;;;;;8.93;7.20;;;11.80;85.40;;;12.01;59.47;94688.47;5057110;28;20487;-56
2022/04/17 03:13:49;;;;;;;8.57;6.80;;;11.80;86.60;;;12.00;58.44;94686.81;5051893;28;20625;-55
2022/04/17 03:16:16;;;;;;;15.13;7.13;;;11.80;85.70;;;11.94;58.35;94672.44;5052717;28;21047;-56
2022/04/17 03:18:45;;;;;;;14.00;7.67;;;11.80;85.80;;;11.94;58.82;94676.88;5051753;28;20898;-56
2022/04/17 03:21:12;;;;;;;11.53;7.97;;;11.80;86.40;;;11.93;58.06;94675.22;5058985;28;21011;-57
2022/04/17 03:23:39;;;;;;;9.10;7.73;;;11.80;85.20;;;11.92;58.42;94678.81;5056582;28;20464;-55
2022/04/17 03:26:06;;;;;;;7.77;7.00;;;11.80;85.80;;;11.92;58.20;94679.66;5057375;28;20546;-57
2022/04/17 03:28:34;;;;;;;12.33;7.67;;;11.80;86.60;;;11.92;58.45;94679.66;5059217;28;20458;-57
2022/04/17 03:31:01;;;;;;;8.10;6.93;;;11.70;86.20;;;11.90;59.30;94680.75;5058800;28;20495;-57
2022/04/17 03:33:28;;;;;;;9.70;6.57;;;11.70;87.70;;;11.86;58.37;94685.53;5051995;28;20479;-58
2022/04/17 03:35:57;;;;;;;10.93;7.07;;;11.70;86.30;;;11.80;58.95;94681.69;5048374;28;20626;-55
2022/04/17 03:38:24;;;;;;;8.63;7.00;;;11.70;87.20;;;11.75;58.88;94689.22;5053331;28;20528;-56
2022/04/17 03:40:52;;;;;;;14.57;7.20;;;11.60;87.20;;;11.72;58.86;94692.16;5054669;28;20478;-58
2022/04/17 03:43:22;;;;;;;10.17;7.07;;;11.60;87.20;;;11.71;59.81;94682.63;5055133;28;20508;-56
2022/04/17 03:45:49;;;;;;;14.00;8.00;;;11.60;88.30;;;11.68;59.12;94685.56;5054756;28;20540;-57
2022/04/17 03:48:18;;;;;;;18.00;6.63;;;11.60;88.00;;;11.66;60.54;94684.84;5059677;28;20513;-55
2022/04/17 03:50:45;;;;;;;9.43;7.30;;;11.50;89.60;;;11.64;60.74;94686.81;5057592;28;20905;-57
2022/04/17 03:53:14;;;;;;;7.77;6.67;;;11.50;89.60;;;11.60;59.73;94686.31;5051161;28;20952;-56
2022/04/17 03:55:41;;;;;;;7.37;6.67;;;11.50;89.20;;;11.59;59.89;94694.34;5052401;28;20895;-55
2022/04/17 03:58:08;;;;;;;9.80;7.07;;;11.40;89.30;;;11.58;59.84;94687.41;5058785;28;20467;-57
2022/04/17 04:00:36;;;;;;;9.23;5.97;;;11.50;88.90;;;11.57;59.70;94689.22;5055452;28;20498;-55
2022/04/17 04:03:03;;;;;;;7.70;6.37;;;11.50;89.30;;;11.58;59.89;94690.88;5058178;28;20516;-57
2022/04/17 04:05:31;;;;;;;8.13;6.50;;;11.40;89.50;;;11.59;59.82;94694.34;5059659;28;21107;-55
2022/04/17 04:07:58;;;;;;;10.57;6.87;;;11.50;89.60;;;11.58;60.42;94687.41;5059673;28;20455;-56
2022/04/17 04:10:27;;;;;;;6.70;6.10;;;11.50;90.10;;;11.55;59.90;94682.44;5058072;28;20873;-58
2022/04/17 04:12:55;;;;;;;7.40;6.70;;;11.40;89.50;;;11.51;60.54;94687.19;5057727;28;20462;-58
2022/04/17 04:15:22;;;;;;;9.03;6.10;;;11.40;90.20;;;11.52;60.62;94691.47;5054218;28;20522;-56
2022/04/17 04:17:50;;;;;;;7.17;6.50;;;11.40;90.00;;;11.51;61.04;94689.84;5058740;28;20463;-57
2022/04/17 04:20:17;;;;;;;7.13;6.40;;;11.40;90.50;;;11.50;60.04;94687.34;5054252;28;21073;-56
2022/04/17 04:22:44;;;;;;;8.80;6.10;;;11.40;90.00;;;11.49;62.18;94691.78;5058866;28;20454;-58
2022/04/17 04:25:12;;;;;;;10.83;5.47;;;11.40;91.30;;;11.47;60.43;94691.09;5055893;28;20472;-57
2022/04/17 04:30:25;;;;;;;5.97;5.37;;;11.30;91.50;;;11.41;62.97;94694.34;5051548;28;21091;-58
2022/04/17 04:32:54;;;;;;;6.30;5.73;;;11.30;92.40;;;11.37;62.68;94698.22;5048607;28;20967;-57
2022/04/17 04:35:21;;;;;;;7.03;5.87;;;11.20;92.20;;;11.33;62.12;94695.06;5050366;28;20555;-57
2022/04/17 04:37:49;;;;;;;8.03;6.60;;;11.20;91.70;;;11.32;62.15;94690.78;5051804;28;20455;-56
2022/04/17 04:40:17;;;;;;;6.47;5.87;;;11.20;91.80;;;11.29;63.19;94697.19;5054029;28;20935;-57
2022/04/17 04:42:46;;;;;;;8.20;6.80;;;11.20;92.60;;;11.29;63.55;94697.19;5055470;28;21189;-57
2022/04/17 04:47:58;;;;;;;7.23;6.40;;;11.10;92.30;;;11.25;63.39;94692.38;5059862;28;20817;-55
2022/04/17 04:50:25;;;;;;;7.63;5.70;;;11.10;92.80;;;11.23;62.61;94694.31;5054134;28;20617;-56
2022/04/17 04:52:52;;;;;;;24.43;6.87;;;11.10;92.30;;;11.22;62.91;94695.28;5052297;28;20630;-57
2022/04/17 04:55:20;;;;;;;9.30;6.60;;;11.10;92.50;;;11.22;62.76;94693.47;5064992;28;20478;-57
2022/04/17 04:57:48;;;;;;;8.73;5.90;;;11.10;92.40;;;11.23;64.75;94694.31;5057408;28;20451;-56
2022/04/17 05:00:16;;;;;;;6.83;6.23;;;11.10;94.00;;;11.29;64.69;94691.94;5058622;28;20470;-56
2022/04/17 05:02:43;;;;;;;6.67;5.90;;;11.10;94.30;;;11.37;64.01;94691.19;5061059;28;20481;-56
2022/04/17 05:05:11;;;;;;;7.30;6.60;;;11.20;94.10;;;11.41;64.42;94689.06;5062707;28;20909;-56
2022/04/17 05:07:38;;;;;;;6.63;6.07;;;11.20;94.50;;;11.45;63.85;94691.25;5063828;28;20454;-57
2022/04/17 05:10:06;;;;;;;10.33;6.07;;;11.30;93.80;;;11.45;65.25;94696.53;5052838;28;20499;-57
2022/04/17 05:12:36;;;;;;;12.20;5.97;;;11.30;95.30;;;11.41;64.48;94697.78;5054294;28;20516;-57
2022/04/17 05:15:09;;;;;;;8.13;6.30;;;11.30;94.20;;;11.44;64.93;94697.50;5059836;28;20851;-58
2022/04/17 05:17:36;;;;;;;9.17;6.10;;;11.30;94.90;;;11.51;65.10;94691.63;5057601;28;20578;-57
2022/04/17 05:20:04;;;;;;;7.03;6.47;;;11.30;95.10;;;11.57;65.14;94693.66;5058772;28;20471;-55
2022/04/17 05:22:33;;;;;;;6.53;5.93;;;11.40;95.20;;;11.66;65.81;94687.47;5058434;28;20851;-56
2022/04/17 05:25:00;;;;;;;8.80;6.77;;;11.50;95.70;;;11.73;65.01;94683.28;5062648;28;21030;-56
2022/04/17 05:27:28;;;;;;;6.93;6.20;;;11.50;95.20;;;11.79;64.56;94681.84;5065411;28;20470;-56
2022/04/17 05:29:55;;;;;;;9.73;5.87;;;11.60;94.80;;;11.81;65.30;94679.88;5062432;28;20571;-57
2022/04/17 05:32:25;;;;;;;7.73;6.70;;;11.60;95.30;;;11.80;65.29;94681.69;5052961;28;20451;-56
2022/04/17 05:34:53;;;;;;;7.30;6.47;;;11.60;95.30;;;11.76;64.69;94674.25;5058977;28;20462;-56
2022/04/17 05:37:20;;;;;;;7.87;6.13;;;11.60;94.90;;;11.82;65.06;94679.72;5058867;28;20463;-58
2022/04/17 05:39:47;;;;;;;9.80;6.80;;;11.70;95.20;;;11.82;64.58;94687.63;5057795;28;20471;-59
2022/04/17 05:42:15;;;;;;;5.93;5.40;;;11.70;94.80;;;11.82;64.54;94685.00;5062101;28;20908;-57
2022/04/17 05:44:42;;;;;;;16.87;8.00;;;11.70;95.00;;;11.82;65.73;94686.81;5055310;28;20454;-57
2022/04/17 05:47:09;;;;;;;5.90;5.20;;;11.70;95.50;;;11.82;66.26;94687.63;5062214;28;20497;-57
2022/04/17 05:49:38;;;;;;;6.40;5.87;;;11.70;96.00;;;11.86;64.85;94692.59;5059124;28;20454;-56
2022/04/17 05:52:06;;;;;;;5.13;4.63;;;11.70;95.30;;;11.88;64.60;94690.63;5055591;28;20531;-57
2022/04/17 05:54:34;;;;;;;6.27;5.67;;;11.70;95.00;;;11.85;64.92;94697.06;5055556;28;20806;-57
2022/04/17 05:57:01;;;;;;;11.80;4.87;;;11.70;95.20;;;11.86;64.93;94688.16;5057005;28;20469;-56
2022/04/17 05:59:29;;;;;;;14.97;6.87;;;11.70;95.00;;;11.86;64.82;94671.53;5057309;28;21246;-57
2022/04/17 06:01:56;;;;;;;10.07;7.40;;;11.70;95.10;;;11.93;65.10;94686.59;5054812;28;20472;-57
2022/04/17 06:04:23;;;;;;;10.63;8.87;;;11.80;95.30;;;11.92;64.69;94682.31;5051246;28;21019;-58
2022/04/17 06:06:52;;;;;;;8.10;7.40;;;11.80;95.10;;;11.90;64.55;94673.69;5058724;28;20819;-57
2022/04/17 06:09:19;;;;;;;10.40;6.70;;;11.80;94.70;;;11.88;64.52;94682.72;5056156;28;20455;-58
2022/04/17 06:11:46;;;;;;;6.83;6.20;;;11.70;94.90;;;11.87;64.44;94683.69;5054863;28;20501;-57
2022/04/17 06:14:14;;;;;;;10.53;6.30;;;11.70;94.60;;;11.85;65.30;94681.25;5055202;28;20517;-57
2022/04/17 06:16:41;;;;;;;6.20;5.70;;;11.70;95.30;;;11.81;64.58;94688.59;5055805;28;20483;-58
2022/04/17 06:19:10;;;;;;;5.50;5.00;;;11.70;94.80;;;11.78;65.47;94667.00;5059820;28;20471;-58
2022/04/17 06:21:37;;;;;;;9.33;5.57;;;11.60;95.40;;;11.73;65.50;94667.47;5058097;28;20502;-58
2022/04/17 06:24:06;;;;;;;7.93;5.40;;;11.60;95.30;;;11.71;64.94;94666.81;5059597;28;20949;-58
2022/04/17 06:26:34;;;;;;;6.00;5.40;;;11.60;95.30;;;11.71;65.05;94674.72;5052625;28;20810;-55
2022/04/17 06:29:05;;;;;;;5.47;5.07;;;11.50;95.20;;;11.70;65.42;94675.69;5052605;28;20457;-55
2022/04/17 06:31:32;;;;;;;9.27;6.80;;;11.50;95.70;;;11.69;65.41;94689.00;5045585;28;20512;-58
2022/04/17 06:33:59;;;;;;;6.80;5.33;;;11.60;95.70;;;11.67;65.82;94673.34;5051415;28;20462;-57
2022/04/17 06:36:27;;;;;;;8.60;5.83;;;11.50;95.80;;;11.66;66.37;94669.88;5060107;28;20472;-58
2022/04/17 06:38:54;;;;;;;6.57;5.87;;;11.50;96.20;;;11.66;65.72;94674.31;5059483;28;20463;-60
2022/04/17 06:41:23;;;;;;;5.27;4.90;;;11.50;95.80;;;11.64;65.92;94673.66;5061700;28;20497;-56
2022/04/17 06:43:50;;;;;;;6.00;5.40;;;11.50;96.00;;;11.63;65.62;94680.72;5057495;28;21031;-57
2022/04/17 06:46:17;;;;;;;4.70;4.30;;;11.50;95.70;;;11.64;65.49;94677.09;5055984;28;20496;-57
2022/04/17 06:48:45;;;;;;;6.53;4.20;;;11.50;95.70;;;11.66;65.37;94679.59;5055084;28;20464;-58
2022/04/17 06:51:13;;;;;;;5.60;5.00;;;11.50;95.70;;;11.68;65.23;94672.38;5056000;28;20511;-58
2022/04/17 06:53:40;;;;;;;7.90;4.20;;;11.50;95.50;;;11.69;65.89;94681.91;5059114;28;20466;-58
2022/04/17 06:56:08;;;;;;;5.27;4.77;;;11.50;96.00;;;11.68;65.46;94687.34;5059253;28;20803;-58
2022/04/17 06:58:37;;;;;;;15.37;4.93;;;11.50;95.50;;;11.65;65.71;94684.03;5054044;28;20459;-58
2022/04/17 07:01:04;;;;;;;5.63;5.07;;;11.50;95.80;;;11.65;66.05;94683.22;5060924;28;20484;-58
2022/04/17 07:03:31;;;;;;;5.90;5.40;;;11.50;96.20;;;11.63;65.98;94679.88;5060059;28;20535;-58
2022/04/17 07:05:59;;;;;;;5.37;4.87;;;11.50;96.20;;;11.63;65.79;94671.97;5053048;28;20488;-59
2022/04/17 07:08:28;;;;;;;4.80;4.40;;;11.50;95.90;;;11.65;65.93;94685.84;5058423;28;20496;-58
2022/04/17 07:10:56;;;;;;;12.00;6.87;;;11.50;96.00;;;11.69;66.92;94684.56;5060038;28;20493;-58
2022/04/17 07:13:23;;;;;;;6.07;5.57;;;11.50;97.00;;;11.73;66.04;94670.09;5055864;28;20566;-57
2022/04/17 07:15:52;;;;;;;7.37;5.30;;;11.60;96.20;;;11.74;65.82;94684.09;5056884;28;20481;-57
2022/04/17 07:18:20;;;;;;;6.40;4.47;;;11.60;96.00;;;11.73;65.90;94680.66;5054471;28;20452;-58
2022/04/17 07:20:47;;;;;;;4.60;4.30;;;11.60;96.20;;;11.70;65.75;94683.56;5051755;28;20464;-58
2022/04/17 07:23:14;;;;;;;4.17;3.87;;;11.60;95.90;;;11.68;65.86;94687.34;5048335;28;21013;-56
2022/04/17 07:25:42;;;;;;;3.60;3.30;;;11.50;95.90;;;11.64;66.06;94685.00;5053588;28;20479;-57
2022/04/17 07:28:13;;;;;;;3.13;2.93;;;11.50;96.10;;;11.59;66.19;94689.91;5054102;28;20547;-58
2022/04/17 07:30:40;;;;;;;2.87;2.67;;;11.50;96.30;;;11.56;65.64;94678.84;5055126;28;20530;-57
2022/04/17 07:33:09;;;;;;;4.00;3.70;;;11.40;95.90;;;11.53;66.14;94682.59;5055735;28;20452;-57
2022/04/17 07:35:36;;;;;;;4.07;3.67;;;11.40;96.20;;;11.52;66.61;94674.84;5056839;28;20867;-55
2022/04/17 07:38:05;;;;;;;4.63;4.20;;;11.40;96.60;;;11.53;65.99;94687.06;5052629;28;20481;-57
2022/04/17 07:40:34;;;;;;;5.27;4.40;;;11.40;96.30;;;11.57;66.88;94688.38;5059635;28;21006;-57
2022/04/17 07:43:02;;;;;;;4.57;4.17;;;11.40;97.00;;;11.63;66.51;94682.53;5049454;28;20444;-57
2022/04/17 07:45:32;;;;;;;5.67;4.70;;;11.50;96.70;;;11.68;67.66;94682.91;5056425;28;20475;-58
2022/04/17 07:47:59;;;;;;;3.07;2.87;;;11.50;97.20;;;11.67;66.36;94683.88;5051407;28;20455;-59
2022/04/17 07:50:29;;;;;;;3.53;3.30;;;11.50;96.40;;;11.65;66.19;94680.59;5057637;28;21047;-57
2022/04/17 07:52:57;;;;;;;5.27;3.27;;;11.50;96.30;;;11.65;66.34;94677.94;5055386;28;20808;-57
2022/04/17 07:55:24;;;;;;;4.90;3.70;;;11.50;96.50;;;11.64;65.86;94671.84;5053839;28;20477;-59
2022/04/17 07:58:01;;;;;;;5.33;4.83;;;11.50;96.20;;;11.62;66.64;94670.34;5056216;28;20501;-58
2022/04/17 08:00:31;;;;;;;4.50;4.10;;;11.50;96.70;;;11.63;66.00;94672.84;5052382;28;20467;-57
2022/04/17 08:03:09;;;;;;;4.10;3.70;;;11.50;96.30;;;11.67;66.80;94673.34;5045944;28;20466;-58
2022/04/17 08:05:38;;;;;;;3.53;3.27;;;11.50;97.00;;;11.70;66.17;94665.13;5051684;28;20502;-58
2022/04/17 08:08:08;;;;;;;9.50;4.97;;;11.60;96.30;;;11.74;65.93;94663.88;5053599;28;20463;-57
2022/04/17 08:10:35;;;;;;;3.10;2.90;;;11.60;96.20;;;11.78;66.54;94664.38;5056366;28;20528;-56
2022/04/17 08:13:03;;;;;;;3.67;2.60;;;11.60;96.70;;;11.84;66.08;94661.13;5053951;28;20459;-58
2022/04/17 08:15:30;;;;;;;3.00;2.80;;;11.70;96.50;;;11.89;66.14;94656.22;5052207;28;20475;-57
2022/04/17 08:17:57;;;;;;;2.77;2.57;;;11.70;96.50;;;11.95;66.16;94657.47;5050556;28;20448;-58
2022/04/17 08:20:25;;;;;;;3.43;3.27;;;11.80;96.50;;;11.98;65.65;94657.97;5048506;28;20499;-58
2022/04/17 08:22:53;;;;;;;4.00;3.70;;;11.80;96.20;;;12.02;65.96;94658.47;5049916;28;20980;-57
2022/04/17 08:25:21;;;;;;;3.90;3.60;;;11.80;96.30;;;12.04;66.15;94661.81;5058050;28;21082;-58
2022/04/17 08:27:48;;;;;;;5.30;4.13;;;11.90;96.60;;;12.05;66.72;94662.63;5055412;28;20458;-57
2022/04/17 08:30:19;;;;;;;3.60;3.40;;;11.90;96.70;;;12.03;66.02;94660.16;5056588;28;20510;-58
2022/04/17 08:32:47;;;;;;;8.00;3.30;;;11.90;96.30;;;12.02;66.04;94655.84;5051625;28;20447;-57
2022/04/17 08:35:14;;;;;;;4.07;3.77;;;11.90;96.30;;;12.04;66.30;94656.53;5056641;28;20562;-58
2022/04/17 08:37:42;;;;;;;3.27;3.00;;;11.90;96.40;;;12.04;65.91;94658.31;5048512;28;20452;-58
2022/04/17 08:40:12;;;;;;;3.20;3.00;;;11.90;96.30;;;12.05;65.80;94655.53;5048189;28;20563;-58
2022/04/17 08:42:40;;;;;;;3.07;2.87;;;11.90;96.20;;;12.07;66.07;94650.97;5062226;28;20467;-58
2022/04/17 08:45:09;;;;;;;4.10;3.50;;;11.90;96.40;;;12.10;66.41;94649.81;5052778;28;20468;-58
2022/04/17 08:47:37;;;;;;;4.93;3.20;;;11.90;96.50;;;12.06;65.65;94649.28;5058741;28;20630;-58
2022/04/17 08:50:07;;;;;;;3.33;3.13;;;11.90;96.00;;;12.05;65.99;94646.81;5055722;28;20583;-57
2022/04/17 08:52:34;;;;;;;3.07;2.87;;;11.90;96.40;;;12.06;66.12;94654.56;5054371;28;20513;-57
2022/04/17 08:55:01;;;;;;;3.30;3.10;;;11.90;96.40;;;12.10;66.02;94658.56;5055999;28;20467;-58
2022/04/17 08:57:30;;;;;;;4.83;3.37;;;11.90;96.40;;;12.14;66.15;94653.78;5050772;28;20990;-58
2022/04/17 08:59:58;;;;;;;3.60;3.30;;;12.00;96.60;;;12.16;66.06;94659.72;5050056;28;20472;-57
2022/04/17 09:02:25;;;;;;;4.47;4.13;;;12.00;96.40;;;12.17;66.20;94646.41;5051285;28;20562;-57
2022/04/17 09:04:52;;;;;;;5.70;3.90;;;12.00;96.40;;;12.20;65.97;94642.63;5055761;28;20558;-58
2022/04/17 09:07:20;;;;;;;4.20;3.10;;;12.00;96.60;;;12.19;66.15;94640.97;5055694;28;20456;-57
2022/04/17 09:09:50;;;;;;;4.00;3.60;;;12.00;96.60;;;12.16;66.61;94643.91;5055671;28;20470;-57
2022/04/17 09:12:19;;;;;;;3.13;2.93;;;12.00;96.70;;;12.10;65.78;94644.53;5053842;28;20903;-58
2022/04/17 09:14:47;;;;;;;6.20;3.70;;;11.90;96.40;;;12.08;65.90;94639.41;5054437;28;20475;-58
2022/04/17 09:17:15;;;;;;;6.93;3.60;;;11.90;96.20;;;12.11;65.97;94639.09;5048495;28;20454;-57
2022/04/17 09:19:43;;;;;;;8.80;3.70;;;11.90;96.30;;;12.12;66.01;94643.41;5049818;28;20477;-58
2022/04/17 09:22:10;;;;;;;3.53;3.30;;;11.90;96.40;;;12.14;66.09;94640.63;5053954;28;20452;-58
2022/04/17 09:24:38;;;;;;;3.00;2.80;;;12.00;96.40;;;12.17;66.90;94635.84;5055672;28;20447;-57
2022/04/17 09:27:07;;;;;;;3.23;3.03;;;12.00;97.10;;;12.20;66.38;94629.44;5054736;28;20467;-57
2022/04/17 09:29:35;;;;;;;3.17;2.97;;;12.00;96.70;;;12.23;66.18;94633.59;5057264;28;20973;-58
2022/04/17 09:32:05;;;;;;;4.23;3.93;;;12.00;96.70;;;12.24;66.11;94630.81;5049068;28;20544;-59
2022/04/17 09:34:44;;;;;;;3.10;2.90;;;12.10;96.50;;;12.26;65.25;94618.28;5062606;28;20457;-58
2022/04/17 09:37:15;;;;;;;3.43;3.20;;;12.10;95.90;;;12.31;65.34;94609.91;5049967;28;20447;-58
2022/04/17 09:39:42;;;;;;;4.17;3.77;;;12.10;95.80;;;12.36;65.40;94610.25;5061890;28;20446;-57
2022/04/17 09:42:09;;;;;;;3.53;3.10;;;12.20;95.90;;;12.41;65.81;94602.72;5057281;28;20465;-58
2022/04/17 09:44:47;;;;;;;3.53;3.23;;;12.20;96.30;;;12.47;65.36;94603.88;5060291;28;20850;-59
2022/04/17 09:47:18;;;;;;;3.30;3.10;;;12.30;96.10;;;12.53;66.05;94601.44;5059494;28;20970;-58
2022/04/17 09:49:58;;;;;;;6.30;3.33;;;12.30;96.40;;;12.59;65.68;94601.78;5059869;28;20471;-57
2022/04/17 09:52:27;;;;;;;4.50;4.10;;;12.40;96.40;;;12.61;65.42;94605.94;5054987;28;20482;-57
2022/04/17 09:54:54;;;;;;;3.97;3.37;;;12.40;96.10;;;12.59;64.96;94601.78;5052538;28;20486;-57
2022/04/17 09:57:32;;;;;;;3.63;3.17;;;12.40;95.60;;;12.42;65.01;94596.44;5053180;28;20458;-57
2022/04/17 10:00:07;;;;;;;3.53;3.23;;;12.30;95.60;;;12.26;65.30;94593.72;5061448;28;20462;-55
2022/04/17 10:02:37;;;;;;;3.87;3.20;;;12.10;95.50;;;12.16;65.68;94591.19;5056276;28;20447;-58
2022/04/17 10:05:06;;;;;;;4.27;3.83;;;12.00;95.80;;;12.06;65.61;94599.22;5056925;28;20491;-57
2022/04/17 10:07:34;;;;;;;3.93;3.60;;;12.00;95.70;;;11.93;65.23;94602.25;5059498;28;20451;-57
2022/04/17 10:10:01;;;;;;;3.70;3.40;;;11.80;95.40;;;11.80;65.76;94604.44;5053041;28;21029;-58
2022/04/17 10:12:28;;;;;;;6.20;3.27;;;11.70;95.80;;;11.63;65.66;94595.59;5057140;28;21026;-56
2022/04/17 10:14:55;;;;;;;3.87;3.50;;;11.60;95.70;;;11.48;66.01;94590.06;5054443;28;20529;-58
2022/04/17 10:17:23;;;;;;;3.97;3.77;;;11.40;95.80;;;11.41;65.92;94587.19;5057127;28;20467;-58
2022/04/17 10:19:52;;;;;;;7.83;5.10;;;11.30;96.10;;;11.40;66.37;94584.69;5061442;28;20548;-58
2022/04/17 10:22:20;;;;;;;3.60;3.40;;;11.30;96.30;;;11.34;66.06;94575.63;5060368;28;20471;-57
2022/04/17 10:24:55;;;;;;;5.03;3.33;;;11.20;96.10;;;11.28;66.05;94571.78;5059792;28;20476;-57
2022/04/17 10:27:24;;;;;;;3.67;3.40;;;11.20;96.30;;;11.22;66.42;94576.84;5057802;28;20439;-57
2022/04/17 10:29:55;;;;;;;3.77;3.53;;;11.10;96.60;;;11.18;66.41;94580.72;5053994;28;20514;-56
2022/04/17 10:33:18;;;;;;;3.83;3.53;;;11.00;96.30;;;11.13;67.02;94589.91;5047973;28;21036;-57
2022/04/17 10:36:02;;;;;;;4.70;4.30;;;11.00;96.90;;;11.11;66.45;94586.59;5041708;28;20509;-55